Time;durP1;ratioP1;P1;durP2;ratioP2;P2;SDS_P1;SDS_P2;PMS_P1;PMS_P2;Temp;Humidity;BMP_temperature;BMP_pressure;BME280_temperature;BME280_humidity;BME280_pressure;Samples;Min_cycle;Max_cycle;Signal;HPM_P1;HPM_P2
2023/03/17 00:01:19;;;;;;;;;12.67;10.33;;;;;13.08;95.31;100187.78;5006081;28;45557;-77
2023/03/17 00:03:46;;;;;;;;;17.33;12.67;;;;;13.12;95.22;100204.66;5006111;28;45665;-78
2023/03/17 00:06:20;;;;;;;;;14.33;10.67;;;;;13.11;95.87;100206.56;5009694;28;47645;-76
2023/03/17 00:08:46;;;;;;;;;12.00;11.00;;;;;13.08;95.58;100207.03;5006425;28;45427;-77
2023/03/17 00:11:13;;;;;;;;;10.33;10.00;;;;;12.83;96.24;100172.34;5008667;28;45693;-79
2023/03/17 00:13:40;;;;;;;;;21.33;14.67;;;;;12.95;97.04;100199.00;4992102;28;47446;-77
2023/03/17 00:16:20;;;;;;;;;14.00;14.00;;;;;12.88;97.51;100208.22;5010381;28;45486;-76
2023/03/17 00:18:48;;;;;;;;;15.33;14.33;;;;;12.83;97.61;100212.75;5008753;28;45510;-78
2023/03/17 00:21:16;;;;;;;;;16.33;15.00;;;;;12.78;97.43;100221.72;5007582;28;45639;-76
2023/03/17 00:23:47;;;;;;;;;17.00;15.33;;;;;12.68;98.32;100210.50;5009565;28;45806;-76
2023/03/17 00:26:13;;;;;;;;;16.33;14.00;;;;;12.69;98.04;100207.50;5010682;28;46644;-80
2023/03/17 00:28:39;;;;;;;;;14.00;13.33;;;;;12.65;97.64;100208.19;5009227;28;45661;-80
2023/03/17 00:31:17;;;;;;;;;11.67;10.67;;;;;12.66;97.82;100210.69;5007695;28;45754;-78
2023/03/17 00:33:45;;;;;;;;;16.00;13.00;;;;;12.65;98.58;100206.28;5003794;28;45492;-78
2023/03/17 00:36:16;;;;;;;;;12.67;12.67;;;;;12.63;98.23;100202.09;4997022;28;47353;-77
2023/03/17 00:38:43;;;;;;;;;13.33;12.33;;;;;12.61;98.89;100207.00;5010841;28;45832;-78
2023/03/17 00:41:09;;;;;;;;;8.67;4.33;;;;;12.57;99.29;100211.28;4994859;28;45744;-78
2023/03/17 00:43:35;;;;;;;;;12.33;10.00;;;;;12.57;99.16;100208.53;5004202;28;45701;-78
2023/03/17 00:46:01;;;;;;;;;10.00;10.00;;;;;12.53;99.24;100209.00;5011172;28;46570;-79
2023/03/17 00:48:30;;;;;;;;;15.00;11.00;;;;;12.41;99.45;100191.66;5014294;28;45868;-80
2023/03/17 00:50:56;;;;;;;;;15.67;11.67;;;;;12.58;99.66;100222.06;4999882;28;45760;-80
2023/03/17 00:53:27;;;;;;;;;10.33;10.33;;;;;12.58;99.67;100212.97;5017232;28;45546;-80
2023/03/17 00:55:53;;;;;;;;;15.00;13.67;;;;;12.56;100.00;100213.22;5015841;28;45490;-78
2023/03/17 00:58:30;;;;;;;;;13.00;12.00;;;;;12.49;100.00;100202.28;5013547;28;45629;-79
2023/03/17 01:00:56;;;;;;;;;17.67;16.00;;;;;12.56;100.00;100212.34;5012269;28;45779;-79
2023/03/17 01:03:23;;;;;;;;;18.00;16.33;;;;;12.54;100.00;100207.09;5009469;28;46690;-80
2023/03/17 01:05:52;;;;;;;;;12.67;11.67;;;;;12.50;100.00;100214.97;4997288;28;47268;-81
2023/03/17 01:08:20;;;;;;;;;15.67;14.00;;;;;12.48;100.00;100206.09;5009645;28;46044;-80
2023/03/17 01:10:51;;;;;;;;;14.33;12.33;;;;;12.14;100.00;100163.69;5008212;28;45348;-81
2023/03/17 01:13:17;;;;;;;;;16.67;14.00;;;;;12.16;100.00;100187.13;4990253;28;45783;-78
2023/03/17 01:15:47;;;;;;;;;13.67;9.33;;;;;12.18;100.00;100182.25;4996352;28;47995;-80
2023/03/17 01:18:15;;;;;;;;;13.00;12.67;;;;;12.09;100.00;100169.06;5013809;28;45574;-80
2023/03/17 01:20:42;;;;;;;;;16.67;13.33;;;;;12.35;100.00;100218.16;5010672;28;46063;-80
2023/03/17 01:23:09;;;;;;;;;7.33;7.33;;;;;12.26;100.00;100204.97;4993553;28;46511;-79
2023/03/17 01:25:37;;;;;;;;;18.00;12.33;;;;;12.33;100.00;100213.97;4992295;28;48090;-79
2023/03/17 01:28:04;;;;;;;;;11.00;11.00;;;;;12.17;100.00;100196.19;5013194;28;45777;-80
2023/03/17 01:30:38;;;;;;;;;11.67;11.67;;;;;12.21;100.00;100200.16;5007037;28;45396;-79
2023/03/17 01:33:08;;;;;;;;;13.67;11.00;;;;;12.13;100.00;100187.59;5010647;28;46535;-80
2023/03/17 01:35:37;;;;;;;;;11.00;11.00;;;;;12.29;100.00;100199.84;5010416;28;45843;-79
2023/03/17 01:38:03;;;;;;;;;16.33;12.33;;;;;12.25;100.00;100190.38;5014519;28;45467;-79
2023/03/17 01:40:32;;;;;;;;;12.00;10.67;;;;;12.37;100.00;100212.44;5020662;28;45341;-80
2023/03/17 01:43:17;;;;;;;;;17.33;16.00;;;;;12.30;100.00;100197.94;5017989;28;45477;-81
2023/03/17 01:46:34;;;;;;;;;16.00;14.00;;;;;12.32;100.00;100213.13;5021518;28;46801;-81
2023/03/17 01:49:21;;;;;;;;;15.33;12.33;;;;;12.13;100.00;100184.00;5013409;28;45788;-80
2023/03/17 01:52:13;;;;;;;;;13.67;13.67;;;;;12.13;100.00;100204.09;5012670;28;45503;-80
2023/03/17 01:55:05;;;;;;;;;15.00;14.00;;;;;12.14;100.00;100211.28;4998109;28;45615;-80
2023/03/17 01:59:04;;;;;;;;;;;;;;;;;;;;;
2023/03/17 02:01:36;;;;;;;;;14.00;13.00;;;;;11.68;100.00;100140.38;4972761;28;71847;-78
2023/03/17 02:04:03;;;;;;;;;15.00;11.00;;;;;11.81;100.00;100167.69;5022388;28;45505;-78
2023/03/17 02:06:30;;;;;;;;;14.33;13.33;;;;;12.01;100.00;100197.69;5021657;28;45861;-79
2023/03/17 02:08:59;;;;;;;;;16.00;13.00;;;;;11.92;100.00;100197.16;5025355;28;45817;-77
2023/03/17 02:11:25;;;;;;;;;18.00;15.00;;;;;11.95;100.00;100193.97;5018498;28;45399;-78
2023/03/17 02:13:50;;;;;;;;;13.67;13.33;;;;;11.70;100.00;100158.31;5022492;28;45689;-78
2023/03/17 02:16:19;;;;;;;;;16.67;15.00;;;;;11.75;100.00;100166.72;5004775;28;45346;-79
2023/03/17 02:19:07;;;;;;;;;17.33;16.33;;;;;11.80;100.00;100186.09;5011047;28;45276;-80
2023/03/17 02:21:49;;;;;;;;;15.67;12.33;;;;;11.98;100.00;100209.16;4994978;28;45504;-80
2023/03/17 02:28:51;;;;;;;;;11.67;10.67;;;;;12.00;100.00;100191.34;5034035;28;44872;-80
2023/03/17 02:31:42;;;;;;;;;13.67;12.67;;;;;11.75;100.00;100138.41;4997896;28;45036;-81
2023/03/17 02:34:08;;;;;;;;;12.67;12.67;;;;;12.07;100.00;100198.69;5031131;28;45603;-76
2023/03/17 02:36:33;;;;;;;;;14.33;12.00;;;;;12.07;100.00;100188.53;5021279;28;45629;-78
2023/03/17 02:38:59;;;;;;;;;13.00;11.33;;;;;11.94;100.00;100166.72;5026954;28;45124;-77
2023/03/17 02:41:25;;;;;;;;;12.67;11.67;;;;;12.08;100.00;100190.22;5024094;28;46072;-77
2023/03/17 02:43:52;;;;;;;;;11.33;9.67;;;;;12.13;100.00;100195.84;5031045;28;45366;-78
2023/03/17 02:46:18;;;;;;;;;13.33;12.33;;;;;12.08;100.00;100170.97;5031849;28;45354;-78
2023/03/17 02:48:45;;;;;;;;;11.67;11.67;;;;;12.15;100.00;100181.84;5027650;28;45426;-76
2023/03/17 02:51:11;;;;;;;;;13.67;13.00;;;;;12.10;100.00;100174.31;5026631;28;46461;-78
2023/03/17 02:53:36;;;;;;;;;15.00;14.00;;;;;12.22;100.00;100184.53;5026835;28;44900;-78
2023/03/17 02:56:03;;;;;;;;;10.33;10.33;;;;;12.07;100.00;100161.03;5008366;28;45726;-77
2023/03/17 02:58:30;;;;;;;;;15.00;13.67;;;;;12.24;100.00;100180.44;5027173;28;46352;-79
2023/03/17 03:00:55;;;;;;;;;10.33;10.00;;;;;12.10;100.00;100144.06;5018430;28;45592;-78
2023/03/17 03:03:21;;;;;;;;;14.00;11.67;;;;;12.27;100.00;100166.22;5024596;28;45478;-78
2023/03/17 03:05:49;;;;;;;;;14.00;13.00;;;;;12.30;100.00;100171.25;4999870;28;45757;-81
2023/03/17 03:08:28;;;;;;;;;14.67;14.00;;;;;12.29;100.00;100164.09;4994248;28;46549;-80
2023/03/17 03:10:54;;;;;;;;;15.00;14.00;;;;;12.32;100.00;100163.63;5009827;28;47150;-80
2023/03/17 03:13:21;;;;;;;;;13.33;12.00;;;;;12.35;100.00;100162.34;4999891;28;45787;-79
2023/03/17 03:15:47;;;;;;;;;15.00;14.00;;;;;12.38;100.00;100145.38;5005159;28;45375;-80
2023/03/17 03:18:14;;;;;;;;;12.33;12.33;;;;;12.03;100.00;100095.78;5005223;28;45649;-80
2023/03/17 03:20:42;;;;;;;;;6.67;6.67;;;;;12.36;100.00;100153.84;5011849;28;45601;-78
2023/03/17 03:23:08;;;;;;;;;12.67;12.67;;;;;12.14;100.00;100117.81;5010222;28;45532;-78
2023/03/17 03:25:36;;;;;;;;;16.33;15.33;;;;;12.17;100.00;100122.84;5009535;28;45728;-80
2023/03/17 03:28:09;;;;;;;;;14.00;12.00;;;;;12.27;100.00;100136.00;5015929;28;45761;-83
2023/03/17 03:30:36;;;;;;;;;15.67;14.00;;;;;12.31;100.00;100152.88;5010647;28;45527;-80
2023/03/17 03:33:02;;;;;;;;;14.33;14.33;;;;;11.99;100.00;100103.63;4991068;28;46062;-80
2023/03/17 03:35:28;;;;;;;;;17.33;14.33;;;;;12.07;100.00;100119.00;5010728;28;45826;-79
2023/03/17 03:37:55;;;;;;;;;14.33;13.33;;;;;11.99;100.00;100120.13;5009011;28;45852;-80
2023/03/17 03:40:22;;;;;;;;;16.33;13.00;;;;;11.91;100.00;100120.44;5006740;28;45812;-80
2023/03/17 03:42:47;;;;;;;;;15.67;14.67;;;;;12.07;100.00;100155.53;5011680;28;45785;-80
2023/03/17 03:45:13;;;;;;;;;18.67;16.00;;;;;12.07;100.00;100158.28;5012845;28;45502;-80
2023/03/17 03:47:39;;;;;;;;;20.00;16.00;;;;;11.87;100.00;100135.72;5011947;28;45524;-81
2023/03/17 03:50:05;;;;;;;;;16.00;13.00;;;;;12.07;100.00;100176.69;4992898;28;47039;-80
2023/03/17 03:52:31;;;;;;;;;14.00;12.33;;;;;11.83;100.00;100125.19;4992773;28;45632;-82
2023/03/17 03:54:57;;;;;;;;;17.33;15.00;;;;;11.89;100.00;100137.16;4988598;28;45917;-82
2023/03/17 03:57:22;;;;;;;;;14.00;13.00;;;;;12.08;100.00;100159.13;5011879;28;45823;-81
2023/03/17 03:59:48;;;;;;;;;15.33;13.67;;;;;11.93;100.00;100145.78;5008390;28;47303;-79
2023/03/17 04:02:13;;;;;;;;;12.67;12.67;;;;;12.02;100.00;100152.66;5011859;28;45851;-74
2023/03/17 04:04:39;;;;;;;;;9.00;9.00;;;;;12.05;100.00;100154.09;4992610;28;45682;-75
2023/03/17 04:07:04;;;;;;;;;12.00;12.00;;;;;12.19;100.00;100170.16;4991390;28;45584;-75
2023/03/17 04:09:30;;;;;;;;;13.67;12.00;;;;;12.25;100.00;100189.56;5008563;28;45495;-74
2023/03/17 04:11:56;;;;;;;;;16.67;11.67;;;;;12.25;100.00;100175.81;5006945;28;45762;-74
2023/03/17 04:14:24;;;;;;;;;15.67;15.00;;;;;12.20;100.00;100176.50;5002307;28;45516;-75
2023/03/17 04:16:53;;;;;;;;;12.67;11.00;;;;;12.18;100.00;100179.50;5009145;28;45529;-75
2023/03/17 04:19:20;;;;;;;;;12.00;10.00;;;;;12.28;100.00;100189.09;5009659;28;45610;-75
2023/03/17 04:21:46;;;;;;;;;13.33;12.33;;;;;12.28;100.00;100186.34;5009276;28;45436;-76
2023/03/17 04:24:12;;;;;;;;;9.33;9.00;;;;;12.18;100.00;100178.63;5004598;28;45405;-75
2023/03/17 04:26:37;;;;;;;;;12.67;12.00;;;;;12.29;100.00;100182.50;5009855;28;45724;-75
2023/03/17 04:29:02;;;;;;;;;11.00;11.00;;;;;12.28;100.00;100178.91;5009613;28;46096;-75
2023/03/17 04:31:28;;;;;;;;;11.00;10.33;;;;;12.32;100.00;100179.28;5020499;28;45932;-75
2023/03/17 04:33:53;;;;;;;;;15.00;13.00;;;;;12.27;100.00;100166.22;5015341;28;45543;-75
2023/03/17 04:36:21;;;;;;;;;12.33;12.33;;;;;12.29;100.00;100177.00;4990046;28;45901;-76
2023/03/17 04:38:47;;;;;;;;;10.00;8.67;;;;;12.17;100.00;100157.72;5008129;28;46346;-77
2023/03/17 04:41:14;;;;;;;;;9.67;8.33;;;;;12.28;100.00;100164.34;5002993;28;45881;-75
2023/03/17 04:43:40;;;;;;;;;12.33;10.67;;;;;12.27;100.00;100165.41;5009684;28;45763;-74
2023/03/17 04:46:06;;;;;;;;;9.67;8.33;;;;;12.08;100.00;100138.00;5010922;28;45853;-74
2023/03/17 04:48:32;;;;;;;;;15.00;11.00;;;;;12.25;100.00;100154.66;5009505;28;45376;-73
2023/03/17 04:50:58;;;;;;;;;11.67;10.67;;;;;12.26;100.00;100159.09;5008124;28;45302;-74
2023/03/17 04:53:23;;;;;;;;;10.67;10.67;;;;;12.18;100.00;100152.00;5005131;28;45498;-73
2023/03/17 04:55:49;;;;;;;;;11.33;9.67;;;;;12.20;100.00;100140.78;5008539;28;46358;-74
2023/03/17 04:58:14;;;;;;;;;9.33;9.33;;;;;12.30;100.00;100159.44;5009457;28;45760;-74
2023/03/17 05:00:40;;;;;;;;;14.67;14.67;;;;;12.31;100.00;100155.63;4995872;28;45744;-74
2023/03/17 05:03:06;;;;;;;;;15.00;13.33;;;;;12.30;100.00;100153.94;4992124;28;45980;-73
2023/03/17 05:05:33;;;;;;;;;12.67;9.67;;;;;12.41;100.00;100174.28;5005864;28;45861;-73
2023/03/17 05:07:58;;;;;;;;;14.33;14.33;;;;;12.42;100.00;100167.72;5003597;28;45484;-74
2023/03/17 05:10:24;;;;;;;;;13.67;10.00;;;;;12.47;100.00;100168.69;5012342;28;45879;-74
2023/03/17 05:12:49;;;;;;;;;23.33;19.67;;;;;12.48;100.00;100162.09;5009281;28;45757;-73
2023/03/17 05:15:15;;;;;;;;;20.67;14.67;;;;;12.45;100.00;100142.50;5004973;28;45676;-75
2023/03/17 05:17:40;;;;;;;;;20.67;16.33;;;;;12.48;100.00;100161.28;4988873;28;48262;-75
2023/03/17 05:20:08;;;;;;;;;13.33;12.00;;;;;12.52;100.00;100166.06;5005998;28;45812;-74
2023/03/17 05:22:33;;;;;;;;;15.33;11.67;;;;;12.55;100.00;100178.50;5006553;28;45594;-76
2023/03/17 05:24:59;;;;;;;;;14.00;14.00;;;;;12.57;100.00;100181.03;5011125;28;45429;-76
2023/03/17 05:27:25;;;;;;;;;13.33;11.00;;;;;12.53;100.00;100176.00;5014283;28;45638;-76
2023/03/17 05:29:50;;;;;;;;;14.67;12.00;;;;;12.42;100.00;100156.72;5006869;28;45514;-76
2023/03/17 05:32:17;;;;;;;;;13.67;11.67;;;;;12.50;100.00;100170.13;5010378;28;45730;-77
2023/03/17 05:34:43;;;;;;;;;11.67;10.67;;;;;12.50;100.00;100159.13;5016229;28;45696;-77
2023/03/17 05:37:09;;;;;;;;;11.67;11.00;;;;;12.50;100.00;100165.47;5012617;28;45707;-75
2023/03/17 05:39:35;;;;;;;;;10.00;9.00;;;;;12.51;100.00;100164.41;5018478;28;45368;-74
2023/03/17 05:42:00;;;;;;;;;8.50;8.50;;;;;12.41;100.00;100146.78;5024136;28;44800;-75
2023/03/17 05:44:26;;;;;;;;;6.33;3.67;;;;;12.52;100.00;100165.25;5019911;28;45364;-74
2023/03/17 05:46:51;;;;;;;;;9.67;9.33;;;;;12.54;100.00;100169.44;5022435;28;46610;-76
2023/03/17 05:49:17;;;;;;;;;10.00;8.33;;;;;12.43;100.00;100153.72;5021199;28;45755;-76
2023/03/17 05:51:43;;;;;;;;;11.33;7.67;;;;;12.57;100.00;100176.34;5028094;28;45770;-76
2023/03/17 05:54:08;;;;;;;;;8.33;8.00;;;;;12.57;100.00;100164.53;5022330;28;45384;-75
2023/03/17 05:56:34;;;;;;;;;0.00;0.00;;;;;12.62;100.00;100173.75;5022907;28;45954;-75
2023/03/17 05:59:00;;;;;;;;;10.33;10.00;;;;;12.63;100.00;100172.66;5004597;28;45411;-77
2023/03/17 06:01:26;;;;;;;;;10.00;9.67;;;;;12.62;100.00;100175.63;5020649;28;45410;-76
2023/03/17 06:03:53;;;;;;;;;7.00;7.00;;;;;12.64;100.00;100176.25;5021434;28;45638;-78
2023/03/17 06:06:18;;;;;;;;;10.67;10.67;;;;;12.67;100.00;100181.28;5022002;28;45695;-77
2023/03/17 06:08:44;;;;;;;;;12.00;9.00;;;;;12.60;100.00;100164.03;5016116;28;44683;-75
2023/03/17 06:11:10;;;;;;;;;13.00;10.33;;;;;12.53;100.00;100151.25;5015070;28;45554;-77
2023/03/17 06:13:36;;;;;;;;;9.67;9.67;;;;;12.66;100.00;100168.59;5032339;28;45328;-78
2023/03/17 06:16:08;;;;;;;;;7.33;7.33;;;;;12.53;100.00;100143.00;5027068;28;47368;-78
2023/03/17 06:19:24;;;;;;;;;;;;;;;;;;;;;
2023/03/17 06:21:52;;;;;;;;;9.00;8.00;;;;;12.52;100.00;100133.06;5013837;28;68848;-79
2023/03/17 06:24:30;;;;;;;;;8.33;8.33;;;;;12.67;100.00;100142.78;5039166;28;44735;-85
2023/03/17 06:56:43;;;;;;;;;6.67;6.67;;;;;13.37;100.00;100171.41;4970548;28;44940;-85
2023/03/17 06:59:10;;;;;;;;;8.33;7.33;;;;;13.34;100.00;100160.88;4980676;28;45610;-83
2023/03/17 07:01:37;;;;;;;;;11.67;7.33;;;;;13.58;100.00;100176.25;5008247;28;45678;-83
2023/03/17 07:04:04;;;;;;;;;9.00;8.00;;;;;13.72;100.00;100187.00;5033991;28;45701;-81
2023/03/17 07:09:34;;;;;;;;;7.67;6.67;;;;;13.72;100.00;100151.19;5035205;28;45234;-83
2023/03/17 07:12:07;;;;;;;;;9.33;5.67;;;;;13.91;100.00;100173.91;5016326;28;45537;-82
2023/03/17 07:15:00;;;;;;;;;13.00;12.00;;;;;14.21;100.00;100184.69;5016007;28;45421;-84
2023/03/17 07:17:51;;;;;;;;;;;;;;;;;;;;;
2023/03/17 07:20:19;;;;;;;;;9.33;8.33;;;;;14.19;100.00;100148.25;5028661;28;67847;-84
2023/03/17 07:23:09;;;;;;;;;11.67;8.67;;;;;14.56;100.00;100193.84;5035363;28;45354;-79
2023/03/17 07:25:46;;;;;;;;;7.67;7.33;;;;;14.62;100.00;100176.31;5021733;28;45611;-80
2023/03/17 07:28:34;;;;;;;;;14.00;10.67;;;;;14.88;100.00;100198.84;5033542;28;44871;-83
2023/03/17 07:38:28;;;;;;;;;5.33;5.33;;;;;15.28;100.00;100220.72;4898710;29;44905;-84
2023/03/17 08:29:58;;;;;;;;;10.00;7.00;;;;;16.64;91.81;100195.28;4957473;28;45693;-84
2023/03/17 08:36:53;;;;;;;;;10.00;5.00;;;;;17.20;90.06;100221.81;4923701;28;45777;-85
2023/03/17 08:39:33;;;;;;;;;5.00;5.00;;;;;17.31;91.29;100217.19;4939355;28;45404;-86
2023/03/17 08:42:37;;;;;;;;;;;;;;;;;;;;;
2023/03/17 08:45:18;;;;;;;;;5.33;4.00;;;;;17.84;88.73;100215.25;4941659;28;75130;-86
2023/03/17 08:48:50;;;;;;;;;;;;;;;;;;;;;
2023/03/17 08:51:36;;;;;;;;;7.00;7.00;;;;;18.12;87.09;100202.09;4945482;28;68014;-85
2023/03/17 08:54:03;;;;;;;;;7.00;4.67;;;;;18.21;85.46;100182.97;5023049;28;45401;-83
2023/03/17 08:56:36;;;;;;;;;8.67;5.00;;;;;18.32;85.35;100192.97;5004628;28;46965;-85
2023/03/17 08:59:05;;;;;;;;;5.00;5.00;;;;;18.47;84.11;100179.13;5021394;28;45422;-84
2023/03/17 09:01:38;;;;;;;;;7.00;5.33;;;;;18.54;82.51;100173.28;5004280;28;45501;-86
2023/03/17 09:07:01;;;;;;;;;4.33;3.33;;;;;18.41;82.20;100151.63;5019409;28;46089;-80
2023/03/17 09:10:13;;;;;;;;;6.00;4.33;;;;;18.66;82.50;100170.25;5013020;28;45447;-89
2023/03/17 09:13:03;;;;;;;;;;;;;;;;;;;;;
2023/03/17 09:16:05;;;;;;;;;10.00;6.00;;;;;19.29;80.72;100194.13;4951907;28;75050;-85
2023/03/17 09:18:48;;;;;;;;;4.00;4.00;;;;;19.51;80.19;100202.16;4930098;28;46303;-88
2023/03/17 09:21:27;;;;;;;;;7.33;5.33;;;;;19.55;80.04;100159.59;4949605;28;45983;-86
2023/03/17 09:23:57;;;;;;;;;6.33;4.00;;;;;19.83;78.40;100171.19;4931460;28;45354;-85
2023/03/17 09:27:42;;;;;;;;;6.00;5.67;;;;;20.13;78.12;100180.50;5013700;28;45930;-90
2023/03/17 09:30:16;;;;;;;;;4.67;4.67;;;;;20.37;75.93;100190.94;4933158;28;47305;-85
2023/03/17 09:32:43;;;;;;;;;7.67;6.67;;;;;20.41;75.02;100187.28;5026358;28;44884;-86
2023/03/17 09:35:30;;;;;;;;;8.33;7.33;;;;;20.42;75.67;100166.69;5019713;28;45414;-86
2023/03/17 09:38:14;;;;;;;;;7.33;7.33;;;;;20.72;74.93;100169.53;5023856;28;45686;-86
2023/03/17 09:40:51;;;;;;;;;6.33;6.33;;;;;21.16;72.54;100171.38;5017394;28;45668;-81
2023/03/17 09:43:34;;;;;;;;;6.33;6.00;;;;;21.85;74.39;100165.63;5027900;28;45557;-86
2023/03/17 09:46:35;;;;;;;;;5.00;3.33;;;;;22.74;69.54;100189.22;5030231;28;45563;-89
2023/03/17 09:49:16;;;;;;;;;4.33;4.33;;;;;23.15;67.48;100166.16;5008842;28;45221;-84
2023/03/17 09:51:57;;;;;;;;;8.00;6.00;;;;;23.41;64.21;100163.75;5027557;28;46150;-91
2023/03/17 09:58:42;;;;;;;;;6.33;6.33;;;;;23.95;62.15;100172.47;4948152;28;45306;-88
2023/03/17 10:05:14;;;;;;;;;5.00;5.00;;;;;23.92;61.48;100161.03;4927628;28;45685;-85
2023/03/17 10:09:04;;;;;;;;;4.00;4.00;;;;;24.00;60.81;100163.13;4938042;28;45627;-84
2023/03/17 10:12:26;;;;;;;;;2.75;2.00;;;;;23.69;59.45;100157.31;4967397;28;45067;-84
2023/03/17 10:22:58;;;;;;;;;;;;;;;;;;;;;
2023/03/17 10:43:21;;;;;;;;;1.50;1.50;;;;;22.41;58.21;100171.56;4984771;28;45921;-82
2023/03/17 10:46:23;;;;;;;;;1.00;1.00;;;;;22.06;59.64;100140.22;5001147;28;46072;-81
2023/03/17 10:49:25;;;;;;;;;2.00;1.00;;;;;21.81;58.69;100103.13;5002844;28;45456;-81
2023/03/17 10:51:54;;;;;;;;;1.67;1.67;;;;;21.74;57.44;100109.09;5033612;28;45805;-82
2023/03/17 10:54:24;;;;;;;;;2.67;1.00;;;;;21.90;57.59;100142.38;5020192;28;45814;-76
2023/03/17 10:57:06;;;;;;;;;3.33;1.00;;;;;21.97;58.17;100145.63;5016629;28;45832;-76
2023/03/17 10:59:41;;;;;;;;;5.00;3.00;;;;;21.89;58.25;100166.69;5016893;28;45602;-75
2023/03/17 11:02:20;;;;;;;;;6.33;4.67;;;;;21.75;58.95;100162.94;5011452;28;45259;-75
2023/03/17 11:04:47;;;;;;;;;3.67;2.67;;;;;21.64;58.99;100165.84;5014228;28;45875;-77
2023/03/17 11:07:41;;;;;;;;;1.00;1.00;;;;;21.48;59.96;100172.72;5001438;28;47065;-80
2023/03/17 11:10:24;;;;;;;;;1.00;1.00;;;;;21.30;59.40;100157.56;4991404;28;45460;-77
2023/03/17 11:13:20;;;;;;;;;2.00;1.00;;;;;21.36;60.46;100166.72;5024426;28;45521;-79
2023/03/17 11:30:19;;;;;;;;;;;;;;;;;;;;;
2023/03/17 11:40:43;;;;;;;;;;;;;;;;;;;;;
2023/03/17 11:47:33;;;;;;;;;1.00;1.00;;;;;22.34;61.51;100141.22;4994989;28;45607;-83
2023/03/17 11:50:37;;;;;;;;;2.00;2.00;;;;;22.13;61.79;100138.69;4923711;28;45916;-86
2023/03/17 11:53:35;;;;;;;;;1.00;1.00;;;;;21.94;62.42;100116.34;4987933;28;45703;-78
2023/03/17 11:56:44;;;;;;;;;3.67;2.00;;;;;22.02;62.64;100140.81;4958414;28;45871;-78
2023/03/17 11:59:25;;;;;;;;;1.50;1.50;;;;;21.97;62.42;100110.16;4941300;28;45994;-78
2023/03/17 12:02:38;;;;;;;;;2.33;2.33;;;;;22.06;62.88;100168.13;4991314;28;44913;-78
2023/03/17 12:05:30;;;;;;;;;2.33;1.00;;;;;21.81;63.32;100145.84;4972569;28;45478;-77
2023/03/17 12:08:10;;;;;;;;;1.00;1.00;;;;;21.75;64.27;100169.38;4990861;28;45815;-77
2023/03/17 12:10:49;;;;;;;;;2.33;2.33;;;;;21.59;65.29;100173.47;4985679;28;46024;-77
2023/03/17 12:13:20;;;;;;;;;3.67;2.00;;;;;21.47;65.28;100177.47;4969164;28;45387;-77
2023/03/17 12:16:04;;;;;;;;;4.00;4.00;;;;;21.27;66.02;100186.91;4986811;28;45500;-77
2023/03/17 12:18:35;;;;;;;;;2.67;2.67;;;;;21.13;66.77;100171.97;4988000;28;46098;-76
2023/03/17 12:21:04;;;;;;;;;3.33;3.00;;;;;21.08;67.04;100192.38;4968938;28;46976;-76
2023/03/17 12:23:49;;;;;;;;;2.33;2.00;;;;;20.86;67.43;100197.59;4988970;28;46775;-78
2023/03/17 12:26:40;;;;;;;;;3.33;2.00;;;;;20.66;68.45;100201.34;4991591;28;45565;-76
2023/03/17 12:29:11;;;;;;;;;5.33;2.33;;;;;20.27;68.61;100189.06;4999424;28;45570;-77
2023/03/17 12:31:54;;;;;;;;;2.00;2.00;;;;;20.08;69.83;100188.88;4997266;28;45617;-78
2023/03/17 12:34:29;;;;;;;;;6.67;5.00;;;;;19.89;70.95;100175.59;4988601;28;45523;-74
2023/03/17 12:36:54;;;;;;;;;4.00;2.67;;;;;19.72;71.19;100153.66;4996896;28;45780;-76
2023/03/17 12:39:30;;;;;;;;;3.67;2.00;;;;;19.80;71.50;100163.41;4978749;28;45485;-76
2023/03/17 12:42:07;;;;;;;;;3.33;2.00;;;;;19.79;72.27;100170.09;5000519;28;46573;-77
2023/03/17 12:44:52;;;;;;;;;4.33;4.33;;;;;19.89;72.57;100178.38;4998020;28;45860;-77
2023/03/17 12:47:39;;;;;;;;;3.00;3.00;;;;;19.91;72.88;100164.19;4998435;28;45582;-77
2023/03/17 12:50:14;;;;;;;;;2.67;2.67;;;;;19.72;73.08;100153.66;4993774;28;45524;-77
2023/03/17 12:52:40;;;;;;;;;6.00;3.67;;;;;19.72;73.91;100169.53;5003853;28;45624;-76
2023/03/17 12:55:13;;;;;;;;;8.00;4.00;;;;;19.56;74.62;100141.75;5011603;28;45259;-77
2023/03/17 12:57:45;;;;;;;;;4.00;2.00;;;;;19.77;74.61;100155.59;5002469;28;45943;-76
2023/03/17 13:00:28;;;;;;;;;2.67;2.67;;;;;19.74;75.09;100153.38;4991323;28;45500;-77
2023/03/17 13:03:23;;;;;;;;;2.67;2.67;;;;;19.84;74.88;100167.28;5006811;28;45156;-77
2023/03/17 13:05:52;;;;;;;;;3.00;3.00;;;;;19.68;75.12;100172.03;5005611;28;45379;-77
2023/03/17 13:08:24;;;;;;;;;5.33;3.00;;;;;19.60;76.27;100164.28;5007045;28;45338;-76
2023/03/17 13:10:50;;;;;;;;;4.00;4.00;;;;;19.54;76.63;100157.91;5004531;28;46493;-76
2023/03/17 13:13:22;;;;;;;;;6.67;5.00;;;;;19.66;76.75;100171.50;5004776;28;46403;-76
2023/03/17 13:15:54;;;;;;;;;4.67;3.33;;;;;19.75;77.16;100174.53;4987723;28;45010;-77
2023/03/17 13:18:19;;;;;;;;;8.00;6.00;;;;;19.72;77.01;100172.31;5007681;28;45641;-77
2023/03/17 13:21:10;;;;;;;;;4.67;3.00;;;;;19.80;77.32;100182.88;5005573;28;45562;-77
2023/03/17 13:24:18;;;;;;;;;5.00;5.00;;;;;19.74;77.77;100187.59;4987785;28;46930;-76
2023/03/17 13:27:00;;;;;;;;;3.00;3.00;;;;;19.79;77.80;100185.94;5009274;28;45457;-78
2023/03/17 13:29:39;;;;;;;;;5.33;4.00;;;;;19.73;78.44;100169.25;4984720;28;45517;-77
2023/03/17 13:32:14;;;;;;;;;7.00;5.33;;;;;19.87;78.37;100177.84;5022486;28;46018;-77
2023/03/17 13:35:17;;;;;;;;;5.33;5.33;;;;;20.02;78.62;100178.91;5025787;28;45397;-75
2023/03/17 13:37:55;;;;;;;;;7.00;5.00;;;;;20.23;78.17;100180.44;4999213;28;45589;-74
2023/03/17 13:40:30;;;;;;;;;4.00;4.00;;;;;20.24;77.65;100182.13;5020224;28;45739;-76
2023/03/17 13:43:08;;;;;;;;;5.33;5.33;;;;;20.20;78.74;100188.53;5018826;28;46300;-76
2023/03/17 13:45:45;;;;;;;;;6.00;5.33;;;;;20.17;78.90;100170.44;5002483;28;47266;-76
2023/03/17 13:48:33;;;;;;;;;4.33;4.00;;;;;20.31;78.84;100187.34;5001185;28;45424;-76
2023/03/17 13:51:07;;;;;;;;;4.00;4.00;;;;;20.19;78.57;100201.63;5019321;28;45989;-75
2023/03/17 13:53:39;;;;;;;;;2.00;2.00;;;;;20.06;79.25;100180.81;4996941;28;46147;-76
2023/03/17 13:56:07;;;;;;;;;5.00;3.00;;;;;20.08;79.82;100178.56;5023415;28;45427;-75
2023/03/17 13:58:47;;;;;;;;;6.33;5.00;;;;;20.05;79.48;100176.38;5023931;28;45500;-75
2023/03/17 14:01:14;;;;;;;;;5.00;3.33;;;;;19.99;80.27;100185.88;5025567;28;45545;-76
2023/03/17 14:03:53;;;;;;;;;3.67;3.67;;;;;19.91;81.16;100187.28;5023613;28;45778;-77
2023/03/17 14:06:25;;;;;;;;;4.33;2.67;;;;;19.87;81.65;100186.19;5009990;28;47069;-75
2023/03/17 14:08:57;;;;;;;;;8.00;6.33;;;;;19.92;82.63;100185.34;5023349;28;45541;-76
2023/03/17 14:11:39;;;;;;;;;7.33;5.00;;;;;19.88;82.50;100173.09;5019014;28;45534;-77
2023/03/17 14:14:27;;;;;;;;;6.00;6.00;;;;;19.81;82.64;100175.38;5013043;28;45348;-77
2023/03/17 14:17:17;;;;;;;;;10.33;7.33;;;;;19.61;83.39;100170.69;5022513;28;45595;-77
2023/03/17 14:20:18;;;;;;;;;5.33;4.00;;;;;19.55;83.90;100181.84;5019658;28;45462;-79
2023/03/17 14:22:46;;;;;;;;;7.00;5.67;;;;;19.38;84.31;100170.19;5025014;28;45476;-77
2023/03/17 14:25:18;;;;;;;;;2.33;2.00;;;;;19.39;85.60;100186.59;5001990;28;45940;-74
2023/03/17 14:27:47;;;;;;;;;8.33;7.67;;;;;19.27;86.16;100180.50;5027858;28;47127;-75
2023/03/17 14:30:32;;;;;;;;;6.33;6.33;;;;;19.34;86.00;100186.63;5011835;28;45531;-76
2023/03/17 14:33:14;;;;;;;;;5.00;5.00;;;;;19.36;86.74;100180.78;5008042;28;46017;-76
2023/03/17 14:35:42;;;;;;;;;9.00;6.00;;;;;19.39;86.69;100185.78;5005595;28;45833;-75
2023/03/17 14:38:26;;;;;;;;;8.67;6.33;;;;;19.40;87.67;100176.28;5011406;28;46453;-77
2023/03/17 14:41:13;;;;;;;;;8.33;6.33;;;;;19.48;87.73;100188.81;4990527;28;45558;-76